Hovedside
METAR-TAF:

METAR-TAF

Lufthavner :

Nyslott lufthavn

Nyslott, Finland

breddegrad: 61-57N, lengdegrad: 028-57E, høyde over havet: 95 m

Gjeldene værobservasjon

Denne rapporten ble laget for 15 minutter siden, klokken 12:50 UTC
Vind 5 kt fra Nord-nordøst, skiftende mellom Nord og Øst-nordøst
Temperatur 16°C
Luftfuktighet 82%
Trykk 1011 hPa
Sikt 10 km eller mer
Få skyer i en høyde av 2500 ft
Brutte skyer i en høyde av 6600 ft
Brutte skyer i en høyde av 14500 ft

METAR: EFSA 151250Z AUTO 02005KT 350V060 9999 FEW025 BKN066 BKN145 16/13 Q1011

Tid: 16:05 (13:05 UTC)


TAF: fraværende

Værobservasjoner og værvarsel for over 4000 flyplasser (METAR- og TAF-rapporter).

Tilgjengelige stasjoner er representert av de røde og gule prikkene på kartet.

Hold musepekeren over prikken for å se navnet på stasjonen.

Klikk så for å se værobservasjoner og -varsler.

For å forandre kartet kan du klikke på den grønne knappen med svart kryss for å zoome inn, på den grønne knappen med strek for å zoome ut, eller på de grønne pilene for å se tilstøtende kart.


METAR-TAF: